Have a Safe July 4th! 

Flight Track Log - Related Links

Times and Time Zones

All times are in EDT time to prevent confusion due to time zone crossing. See the FLG4081 flight status page for this flight to view local times or setup timezone preferences in your user account.

Time Position Orientation Groundspeed Altitude Reporting Facility
EDT Latitude Longitude Course Direction KTS MPH feet Rate Location/Type
Sat 08:46:40 PM 42.2017 -83.3583 180° South 162 186 1,300  Level Cleveland Center
Sat 08:47:23 PM 42.1661 -83.3567 178° South 190 219 2,700 2,308 Climbing Cleveland Center
Sat 08:48:11 PM 42.1200 -83.3631 186° South 214 246 4,800 2,452 Climbing Cleveland Center
Sat 08:49:18 PM 42.0453 -83.3597 178° South 262 302 7,400 2,286 Climbing Cleveland Center
Sat 08:49:56 PM 42.0056 -83.3553 175° South 280 322 8,800 1,776 Climbing Cleveland Center
Sat 08:50:00 PM 41.8247 -83.1163 180° South  Level Estimated
Sat 08:50:56 PM 41.9244 -83.3544 180° South 293 337 10,300  Level Cleveland Center
Sat 08:51:00 PM 41.7277 -83.0575 180° South  Level Estimated
Sat 08:51:56 PM 41.8328 -83.3478 177° South 298 343 12,700  Level Cleveland Center
Sat 08:52:00 PM 41.6306 -82.9989 180° South  Level Estimated
Sat 08:52:56 PM 41.7428 -83.3578 185° South 311 358 13,800  Level Cleveland Center
Sat 08:53:56 PM 41.6586 -83.3986 200° South 321 369 15,400 1,450 Climbing Cleveland Center
Sat 08:54:56 PM 41.5658 -83.4417 199° South 334 384 16,700 1,550 Climbing Cleveland Center
Sat 08:55:56 PM 41.4664 -83.4097 166° South 346 398 18,500 1,450 Climbing Cleveland Center
Sat 08:56:56 PM 41.3719 -83.3558 157° South 351 404 19,600 950 Climbing Cleveland Center
Sat 08:57:56 PM 41.2750 -83.3047 158° South 363 418 20,400 850 Climbing Cleveland Center
Sat 08:58:56 PM 41.1742 -83.2508 158° South 374 430 21,300 716 Climbing Cleveland Center
Sat 09:01:17 PM 40.9469 -83.1294 158° South 384 442 22,800 594 Climbing Indianapolis Center
Sat 09:02:18 PM 40.8464 -83.0764 158° South 387 445 23,300 492 Climbing Indianapolis Center
Sat 09:03:19 PM 40.7431 -83.0242 159° South 393 452 23,800 492 Climbing Indianapolis Center
Sat 09:04:20 PM 40.6389 -82.9706 159° South 397 457 24,300 492 Climbing Indianapolis Center
Sat 09:05:21 PM 40.5353 -82.9164 158° South 400 460 24,800 541 Climbing Indianapolis Center
Sat 09:06:22 PM 40.4214 -82.8683 162° South 404 465 25,400 541 Climbing Indianapolis Center
Sat 09:07:23 PM 40.3136 -82.8436 170° South 393 452 25,900 545 Climbing Indianapolis Center
Sat 09:08:23 PM 40.2047 -82.8189 170° South 393 452 26,500 545 Climbing Indianapolis Center
Sat 09:09:24 PM 40.0950 -82.7944 170° South 394 453 27,000 541 Climbing Indianapolis Center
Sat 09:10:25 PM 39.9850 -82.7697 170° South 395 455 27,600 590 Climbing Indianapolis Center
Sat 09:11:26 PM 39.8750 -82.7436 170° South 395 455 28,200 541 Climbing Indianapolis Center
Sat 09:12:27 PM 39.7642 -82.7181 170° South 398 458 28,700 492 Climbing Indianapolis Center
Sat 09:13:28 PM 39.6536 -82.6928 170° South 399 459 29,200 492 Climbing Indianapolis Center
Sat 09:14:29 PM 39.5425 -82.6689 171° South 399 459 29,700 393 Climbing Indianapolis Center
Sat 09:15:30 PM 39.4303 -82.6431 170° South 404 465 30,000 148 Climbing Indianapolis Center
Sat 09:16:31 PM 39.3153 -82.6175 170° South 412 474 30,000  Level Indianapolis Center
Sat 09:17:32 PM 39.1983 -82.5917 170° South 420 483 30,000  Level Indianapolis Center
Sat 09:18:33 PM 39.0964 -82.5678 170° South 423 487 30,000  Level Indianapolis Center
Sat 09:19:34 PM 38.9781 -82.5414 170° South 431 496 30,000  Level Indianapolis Center
Sat 09:20:35 PM 38.8369 -82.5108 170° South 432 497 30,000  Level Indianapolis Center
Sat 09:21:36 PM 38.7189 -82.4842 170° South 432 497 30,000  Level Indianapolis Center
Sat 09:22:37 PM 38.5997 -82.4592 171° South 434 499 30,000  Level Indianapolis Center
Sat 09:23:38 PM 38.4803 -82.4331 170° South 437 503 30,000  Level Indianapolis Center
Sat 09:24:38 PM 38.3617 -82.4056 170° South 436 502 30,000  Level Indianapolis Center
Sat 09:25:39 PM 38.2406 -82.3797 170° South 442 509 30,000  Level Indianapolis Center
Sat 09:26:40 PM 38.1192 -82.3519 170° South 444 511 30,000  Level Indianapolis Center
Sat 09:27:41 PM 37.9914 -82.3269 171° South 440 506 30,000  Level Indianapolis Center
Sat 09:28:42 PM 37.8694 -82.3006 170° South 441 507 30,000 -295 Level Indianapolis Center
Sat 09:29:43 PM 37.7453 -82.2742 170° South 447 514 29,400 -885 Descending Indianapolis Center
Sat 09:30:44 PM 37.6186 -82.2464 170° South 456 525 28,200 -1,131 Descending Indianapolis Center
Sat 09:31:45 PM 37.4894 -82.2189 170° South 466 536 27,100 -590 Descending Indianapolis Center
Sat 09:32:46 PM 37.3614 -82.1914 170° South 465 535 27,000 -49 Descending Indianapolis Center
Sat 09:33:47 PM 37.2408 -82.1478 164° South 463 533 27,000  Level Indianapolis Center
Sat 09:34:47 PM 37.1475 -82.0319 135° Southeast 468 539 27,000  Level Indianapolis Center
Sat 09:35:48 PM 37.0572 -81.9097 133° Southeast 474 545 27,000 -98 Level Indianapolis Center
Sat 09:36:49 PM 36.9672 -81.7897 133° Southeast 472 543 26,800 -590 Descending Indianapolis Center
Sat 09:37:50 PM 36.8761 -81.6675 133° Southeast 477 549 25,800 -1,131 Descending Indianapolis Center
Sat 09:38:51 PM 36.7717 -81.5275 133° Southeast 473 544 24,500 -1,180 Descending Indianapolis Center
Sat 09:39:52 PM 36.6958 -81.4144 130° Southeast 472 543 23,400 -1,426 Descending Indianapolis Center
Sat 09:40:53 PM 36.6364 -81.2711 117° Southeast 479 551 21,600 -2,115 Descending Indianapolis Center
Sat 09:41:54 PM 36.5703 -81.1039 116° Southeast 465 535 19,100 -2,213 Descending Indianapolis Center
Sat 09:42:55 PM 36.5219 -80.9800 116° Southeast 419 482 17,100 -2,164 Descending Indianapolis Center
Sat 09:43:56 PM 36.4767 -80.8672 117° Southeast 384 442 14,700 -2,164 Descending Indianapolis Center
Sat 09:44:57 PM 36.4336 -80.7594 116° Southeast 366 421 12,700 -1,563 Descending Indianapolis Center
Sat 09:46:18 PM 36.3667 -80.5992 117° Southeast 357 411 11,000 -723 Descending Atlanta Center
Sat 09:47:18 PM 36.3264 -80.4978 116° Southeast 357 411 11,000 -50 Level Atlanta Center
Sat 09:48:18 PM 36.2767 -80.3686 115° Southeast 369 425 10,900 -550 Descending Atlanta Center
Sat 09:49:18 PM 36.2669 -80.2533 96° East 348 400 9,900 -1,500 Descending Atlanta Center
Sat 09:50:18 PM 36.2575 -80.1508 96° East 329 379 7,900 -2,100 Descending Atlanta Center
Sat 09:51:18 PM 36.2503 -80.0558 95° East 301 346 5,700 -2,050 Descending Atlanta Center
Sat 09:52:18 PM 36.2494 -79.9708 91° East 278 320 3,800 -1,350 Descending Atlanta Center
Sat 09:53:18 PM 36.2444 -79.8811 94° East 267 307 3,000 -800 Descending Atlanta Center

Login

Don't have an account? Register now (free) for customized features, flight alerts, and more!